Time;durP1;ratioP1;P1;durP2;ratioP2;P2;SDS_P1;SDS_P2;PMS_P1;PMS_P2;Temp;Humidity;BMP_temperature;BMP_pressure;BME280_temperature;BME280_humidity;BME280_pressure;Samples;Min_cycle;Max_cycle;Signal;HPM_P1;HPM_P2
2021/08/20 00:02:06;;;;;;;41.53;29.60;;;;;;;;;;4995476;28;20199;-71
2021/08/20 00:04:32;;;;;;;43.47;29.10;;;;;;;;;;5006531;28;20198;-71
2021/08/20 00:06:57;;;;;;;38.40;30.23;;;;;;;;;;4997458;28;20182;-71
2021/08/20 00:09:23;;;;;;;41.83;29.65;;;;;;;;;;4999068;28;20186;-71
2021/08/20 00:11:48;;;;;;;37.10;29.05;;;;;;;;;;4994214;28;20586;-71
2021/08/20 00:14:17;;;;;;;39.03;28.90;;;;;;;;;;5004580;28;20202;-71
2021/08/20 00:16:43;;;;;;;38.58;28.50;;;;;;;;;;4995776;28;20765;-71
2021/08/20 00:19:08;;;;;;;35.40;27.98;;;;;;;;;;5003007;28;20204;-71
2021/08/20 00:21:34;;;;;;;42.17;29.80;;;;;;;;;;4999877;28;20638;-71
2021/08/20 00:24:00;;;;;;;40.70;29.35;;;;;;;;;;4990056;28;20194;-72
2021/08/20 00:26:25;;;;;;;39.35;28.55;;;;;;;;;;4999444;28;20507;-72
2021/08/20 00:28:51;;;;;;;37.17;28.05;;;;;;;;;;4992876;28;20199;-72
2021/08/20 00:31:16;;;;;;;37.80;28.05;;;;;;;;;;4997579;28;20191;-71
2021/08/20 00:33:41;;;;;;;35.10;28.38;;;;;;;;;;4992397;28;20639;-71
2021/08/20 00:36:07;;;;;;;36.70;26.92;;;;;;;;;;5003041;28;20194;-71
2021/08/20 00:38:37;;;;;;;38.90;28.25;;;;;;;;;;4997666;28;20300;-71
2021/08/20 00:41:03;;;;;;;36.55;26.52;;;;;;;;;;5001406;28;20249;-70
2021/08/20 00:43:29;;;;;;;39.63;28.65;;;;;;;;;;4993840;28;20188;-71
2021/08/20 00:46:00;;;;;;;39.47;27.42;;;;;;;;;;4999790;28;20211;-71
2021/08/20 00:48:25;;;;;;;33.50;25.92;;;;;;;;;;4993404;28;20637;-71
2021/08/20 00:51:00;;;;;;;37.28;25.75;;;;;;;;;;5001430;28;20206;-71
2021/08/20 00:53:26;;;;;;;33.33;24.92;;;;;;;;;;4996382;28;20213;-71
2021/08/20 00:55:51;;;;;;;36.65;25.85;;;;;;;;;;5000520;28;20218;-71
2021/08/20 00:58:17;;;;;;;31.55;24.27;;;;;;;;;;4997522;28;20233;-70
2021/08/20 01:00:42;;;;;;;34.25;23.20;;;;;;;;;;4993921;28;20194;-70
2021/08/20 01:03:07;;;;;;;32.72;23.92;;;;;;;;;;5000415;28;20228;-71
2021/08/20 01:05:33;;;;;;;33.13;21.88;;;;;;;;;;4993405;28;20202;-71
2021/08/20 01:08:00;;;;;;;33.63;22.65;;;;;;;;;;4996623;28;20183;-71
2021/08/20 01:10:26;;;;;;;27.98;21.55;;;;;;;;;;4992963;28;20608;-71
2021/08/20 01:12:51;;;;;;;29.20;21.65;;;;;;;;;;4996628;28;20194;-71
2021/08/20 01:15:16;;;;;;;25.98;20.35;;;;;;;;;;4994182;28;20202;-71
2021/08/20 01:17:42;;;;;;;27.38;20.52;;;;;;;;;;5005999;28;20737;-71
2021/08/20 01:20:10;;;;;;;29.55;20.17;;;;;;;;;;4995762;28;20193;-71
2021/08/20 01:22:36;;;;;;;28.38;20.27;;;;;;;;;;5006438;28;20678;-71
2021/08/20 01:25:04;;;;;;;27.75;20.65;;;;;;;;;;4996305;28;20265;-71
2021/08/20 01:27:33;;;;;;;28.20;20.35;;;;;;;;;;5001322;28;20183;-71
2021/08/20 01:29:59;;;;;;;29.05;20.60;;;;;;;;;;5004130;28;20186;-72
2021/08/20 01:32:25;;;;;;;29.42;19.73;;;;;;;;;;4994469;28;20191;-71
2021/08/20 01:34:50;;;;;;;30.92;20.80;;;;;;;;;;5005635;28;20548;-71
2021/08/20 01:37:16;;;;;;;27.02;20.80;;;;;;;;;;4993466;28;20222;-71
2021/08/20 01:39:41;;;;;;;28.63;21.05;;;;;;;;;;5006577;28;20710;-71
2021/08/20 01:42:07;;;;;;;28.92;21.02;;;;;;;;;;5000191;28;20187;-71
2021/08/20 01:44:32;;;;;;;26.05;21.33;;;;;;;;;;5005973;28;20245;-71
2021/08/20 01:46:57;;;;;;;30.45;22.88;;;;;;;;;;4994798;28;20277;-71
2021/08/20 01:49:23;;;;;;;34.92;22.75;;;;;;;;;;5004278;28;20303;-71
2021/08/20 01:51:48;;;;;;;29.65;23.40;;;;;;;;;;4996282;28;20220;-71
2021/08/20 01:54:13;;;;;;;31.30;22.17;;;;;;;;;;5000901;28;20258;-71
2021/08/20 01:56:39;;;;;;;36.17;22.85;;;;;;;;;;5004974;28;20658;-71
2021/08/20 01:59:04;;;;;;;33.15;23.20;;;;;;;;;;4996750;28;20750;-71
2021/08/20 02:01:31;;;;;;;35.28;23.25;;;;;;;;;;5007147;28;20681;-71
2021/08/20 02:03:57;;;;;;;30.95;23.20;;;;;;;;;;4992857;28;20223;-71
2021/08/20 02:06:23;;;;;;;32.20;23.52;;;;;;;;;;5001345;28;20270;-71
2021/08/20 02:08:49;;;;;;;34.00;25.15;;;;;;;;;;4996646;28;20205;-71
2021/08/20 02:11:14;;;;;;;40.72;25.65;;;;;;;;;;5005736;28;20193;-71
2021/08/20 02:13:40;;;;;;;37.25;26.25;;;;;;;;;;5000776;28;20213;-71
2021/08/20 02:16:06;;;;;;;38.90;27.40;;;;;;;;;;5008329;28;20310;-71
2021/08/20 02:18:32;;;;;;;41.17;28.00;;;;;;;;;;5001293;28;20193;-71
2021/08/20 02:20:57;;;;;;;38.65;27.70;;;;;;;;;;5008515;28;20207;-71
2021/08/20 02:23:23;;;;;;;40.00;28.15;;;;;;;;;;5005327;28;20186;-71
2021/08/20 02:25:48;;;;;;;42.00;29.02;;;;;;;;;;5007663;28;20765;-71
2021/08/20 02:28:13;;;;;;;42.80;30.02;;;;;;;;;;5000117;28;20233;-71
2021/08/20 02:30:39;;;;;;;42.15;30.65;;;;;;;;;;5000674;28;20190;-71
2021/08/20 02:33:04;;;;;;;45.67;31.23;;;;;;;;;;5001738;28;20190;-71
2021/08/20 02:35:29;;;;;;;46.35;30.25;;;;;;;;;;4993639;28;20182;-71
2021/08/20 02:37:56;;;;;;;49.50;32.90;;;;;;;;;;5002750;28;20207;-71
2021/08/20 02:40:22;;;;;;;42.80;30.63;;;;;;;;;;4998915;28;20646;-71
2021/08/20 02:42:48;;;;;;;49.20;33.22;;;;;;;;;;5008046;28;20245;-71
2021/08/20 02:45:14;;;;;;;46.47;33.05;;;;;;;;;;4998844;28;20209;-71
2021/08/20 02:47:40;;;;;;;47.70;32.83;;;;;;;;;;5005337;28;20175;-71
2021/08/20 02:50:07;;;;;;;50.90;32.38;;;;;;;;;;4998722;28;20655;-71
2021/08/20 02:52:32;;;;;;;51.35;33.80;;;;;;;;;;5009647;28;20666;-71
2021/08/20 02:54:57;;;;;;;51.00;33.08;;;;;;;;;;4991855;28;20258;-71
2021/08/20 02:57:27;;;;;;;54.28;34.97;;;;;;;;;;5009306;28;20213;-71
2021/08/20 02:59:52;;;;;;;54.38;34.63;;;;;;;;;;5000861;28;20199;-71
2021/08/20 03:02:18;;;;;;;58.08;35.60;;;;;;;;;;5005285;28;20233;-71
2021/08/20 03:04:43;;;;;;;52.13;35.22;;;;;;;;;;5006362;28;20198;-71
2021/08/20 03:07:08;;;;;;;56.42;33.78;;;;;;;;;;5004533;28;20226;-71
2021/08/20 03:09:34;;;;;;;53.65;34.45;;;;;;;;;;5008742;28;20634;-71
2021/08/20 03:11:59;;;;;;;56.20;35.72;;;;;;;;;;5006744;28;20186;-71
2021/08/20 03:14:25;;;;;;;54.92;35.05;;;;;;;;;;5003511;28;20277;-71
2021/08/20 03:16:50;;;;;;;56.67;36.40;;;;;;;;;;5007360;28;20238;-70
2021/08/20 03:19:15;;;;;;;53.92;32.92;;;;;;;;;;5004318;28;20586;-70
2021/08/20 03:21:41;;;;;;;59.65;37.20;;;;;;;;;;4999094;28;20278;-70
2021/08/20 03:24:06;;;;;;;57.67;34.95;;;;;;;;;;5006680;28;20205;-70
2021/08/20 03:26:32;;;;;;;57.30;35.55;;;;;;;;;;4999855;28;20198;-70
2021/08/20 03:28:57;;;;;;;64.53;39.03;;;;;;;;;;5007741;28;20563;-70
2021/08/20 03:31:23;;;;;;;60.22;37.13;;;;;;;;;;5007309;28;20214;-71
2021/08/20 03:33:48;;;;;;;66.93;39.72;;;;;;;;;;4996039;28;20187;-70
2021/08/20 03:36:14;;;;;;;60.70;38.08;;;;;;;;;;5006954;28;20187;-70
2021/08/20 03:38:39;;;;;;;62.85;37.58;;;;;;;;;;4998588;28;20251;-70
2021/08/20 03:41:05;;;;;;;69.93;39.42;;;;;;;;;;5007093;28;20190;-70
2021/08/20 03:43:30;;;;;;;58.55;36.85;;;;;;;;;;4995740;28;20256;-70
2021/08/20 03:45:56;;;;;;;57.03;35.58;;;;;;;;;;5009963;28;20182;-70
2021/08/20 03:48:21;;;;;;;64.80;37.63;;;;;;;;;;5000334;28;20224;-71
2021/08/20 03:50:46;;;;;;;64.22;38.90;;;;;;;;;;5002663;28;20183;-71
2021/08/20 03:53:12;;;;;;;57.95;35.70;;;;;;;;;;4993980;28;20195;-70
2021/08/20 03:55:37;;;;;;;58.95;36.28;;;;;;;;;;4999921;28;20230;-71
2021/08/20 03:58:02;;;;;;;53.75;35.50;;;;;;;;;;4989736;28;20215;-71
2021/08/20 04:00:28;;;;;;;57.83;36.88;;;;;;;;;;5000788;28;20564;-70
2021/08/20 04:02:53;;;;;;;58.00;36.88;;;;;;;;;;5003042;28;20215;-70
2021/08/20 04:05:20;;;;;;;56.83;36.00;;;;;;;;;;4997400;28;20190;-71
2021/08/20 04:07:46;;;;;;;62.00;36.78;;;;;;;;;;4999813;28;20183;-71
2021/08/20 04:10:11;;;;;;;49.05;32.80;;;;;;;;;;4995337;28;20552;-72
2021/08/20 04:12:37;;;;;;;58.30;36.42;;;;;;;;;;5000417;28;20217;-72
2021/08/20 04:15:02;;;;;;;55.35;34.80;;;;;;;;;;4993992;28;20191;-72
2021/08/20 04:17:28;;;;;;;49.53;32.25;;;;;;;;;;5000701;28;20293;-72
2021/08/20 04:19:53;;;;;;;54.05;36.83;;;;;;;;;;4999367;28;20237;-71
2021/08/20 04:22:18;;;;;;;58.15;36.97;;;;;;;;;;5013053;28;20203;-72
2021/08/20 04:24:43;;;;;;;55.63;36.78;;;;;;;;;;4991218;28;20191;-71
2021/08/20 04:27:09;;;;;;;57.63;35.33;;;;;;;;;;5002120;28;20198;-70
2021/08/20 04:29:35;;;;;;;53.72;35.63;;;;;;;;;;4995482;28;20233;-70
2021/08/20 04:32:02;;;;;;;56.63;36.58;;;;;;;;;;5000758;28;20190;-70
2021/08/20 04:34:27;;;;;;;60.25;36.78;;;;;;;;;;4996919;28;20193;-70
2021/08/20 04:36:53;;;;;;;54.45;34.85;;;;;;;;;;4989544;28;20199;-70
2021/08/20 04:39:18;;;;;;;55.22;35.00;;;;;;;;;;4996203;28;20706;-71
2021/08/20 04:41:44;;;;;;;52.20;33.72;;;;;;;;;;4992947;28;20531;-72
2021/08/20 04:44:09;;;;;;;52.35;34.95;;;;;;;;;;5000996;28;20293;-71
2021/08/20 04:46:34;;;;;;;54.35;34.47;;;;;;;;;;4992996;28;20175;-71
2021/08/20 04:49:00;;;;;;;56.20;33.05;;;;;;;;;;4998538;28;20662;-71
2021/08/20 04:51:25;;;;;;;52.67;33.88;;;;;;;;;;4990281;28;20198;-71
2021/08/20 04:53:51;;;;;;;53.10;34.03;;;;;;;;;;5005372;28;20175;-71
2021/08/20 04:56:17;;;;;;;55.72;35.00;;;;;;;;;;4992482;28;20226;-71
2021/08/20 04:58:42;;;;;;;55.30;33.67;;;;;;;;;;4997375;28;20321;-71
2021/08/20 05:01:08;;;;;;;49.28;32.50;;;;;;;;;;4992582;28;20868;-71
2021/08/20 05:03:33;;;;;;;60.47;33.08;;;;;;;;;;5004118;28;20183;-71
2021/08/20 05:05:59;;;;;;;50.13;31.27;;;;;;;;;;5000379;28;20312;-71
2021/08/20 05:08:25;;;;;;;54.78;32.42;;;;;;;;;;4992709;28;20188;-71
2021/08/20 05:10:50;;;;;;;56.92;32.47;;;;;;;;;;4999860;28;20277;-71
2021/08/20 05:13:15;;;;;;;55.38;32.50;;;;;;;;;;5001434;28;20568;-71
2021/08/20 05:15:41;;;;;;;57.00;32.00;;;;;;;;;;5003674;28;20194;-71
2021/08/20 05:18:06;;;;;;;53.30;30.45;;;;;;;;;;4994990;28;20208;-71
2021/08/20 05:20:32;;;;;;;46.97;30.50;;;;;;;;;;5001778;28;20274;-73
2021/08/20 05:22:57;;;;;;;52.05;30.77;;;;;;;;;;4996161;28;20190;-72
2021/08/20 05:25:24;;;;;;;50.80;30.83;;;;;;;;;;5000639;28;20198;-71
2021/08/20 05:27:50;;;;;;;42.92;28.52;;;;;;;;;;4995405;28;20282;-72
2021/08/20 05:30:17;;;;;;;48.90;31.42;;;;;;;;;;5015759;28;20313;-71
2021/08/20 05:32:43;;;;;;;53.97;30.85;;;;;;;;;;4991896;28;20190;-72
2021/08/20 05:35:10;;;;;;;46.97;28.85;;;;;;;;;;5000536;28;20187;-71
2021/08/20 05:37:36;;;;;;;47.45;30.10;;;;;;;;;;4997239;28;20204;-71
2021/08/20 05:40:03;;;;;;;46.78;28.77;;;;;;;;;;4991489;28;20670;-72
2021/08/20 05:42:29;;;;;;;50.28;30.27;;;;;;;;;;4999236;28;20631;-72
2021/08/20 05:44:55;;;;;;;50.35;30.27;;;;;;;;;;4995944;28;20199;-72
2021/08/20 05:47:21;;;;;;;52.05;31.42;;;;;;;;;;4998471;28;20190;-71
2021/08/20 05:49:47;;;;;;;51.58;32.13;;;;;;;;;;4994091;28;20270;-71
2021/08/20 05:52:12;;;;;;;50.33;31.65;;;;;;;;;;5010014;28;20261;-72
2021/08/20 05:54:38;;;;;;;54.13;31.63;;;;;;;;;;4994184;28;20260;-72
2021/08/20 05:57:03;;;;;;;51.40;30.42;;;;;;;;;;5012193;28;20206;-72
2021/08/20 05:59:28;;;;;;;45.83;26.98;;;;;;;;;;4997540;28;20209;-71
2021/08/20 06:01:54;;;;;;;49.78;29.70;;;;;;;;;;5010329;28;20182;-72
2021/08/20 06:04:19;;;;;;;50.95;31.08;;;;;;;;;;4996488;28;20195;-71
2021/08/20 06:06:44;;;;;;;46.92;29.25;;;;;;;;;;5009040;28;20202;-71
2021/08/20 06:09:10;;;;;;;46.30;28.52;;;;;;;;;;5003512;28;20198;-73
2021/08/20 06:11:35;;;;;;;49.72;29.08;;;;;;;;;;5001023;28;20665;-72
2021/08/20 06:14:00;;;;;;;49.90;29.10;;;;;;;;;;5001799;28;20340;-72
2021/08/20 06:16:26;;;;;;;47.53;29.92;;;;;;;;;;4994586;28;20711;-72
2021/08/20 06:18:51;;;;;;;55.03;29.95;;;;;;;;;;5004482;28;20283;-71
2021/08/20 06:21:17;;;;;;;47.53;29.67;;;;;;;;;;4998744;28;20244;-72
2021/08/20 06:23:42;;;;;;;54.72;31.20;;;;;;;;;;5005729;28;20285;-71
2021/08/20 06:26:08;;;;;;;47.63;29.83;;;;;;;;;;4998466;28;20183;-71
2021/08/20 06:28:34;;;;;;;49.10;29.00;;;;;;;;;;5006300;28;20182;-71
2021/08/20 06:31:04;;;;;;;52.30;29.52;;;;;;;;;;5000344;28;20194;-72
2021/08/20 06:33:33;;;;;;;56.63;32.08;;;;;;;;;;5004694;28;20195;-73
2021/08/20 06:35:58;;;;;;;57.05;31.02;;;;;;;;;;4999604;28;20194;-71
2021/08/20 06:38:24;;;;;;;56.20;30.23;;;;;;;;;;5009486;28;20203;-71
2021/08/20 06:40:49;;;;;;;56.08;31.73;;;;;;;;;;5007087;28;20190;-71
2021/08/20 06:43:15;;;;;;;54.13;30.77;;;;;;;;;;4999966;28;20681;-71
2021/08/20 06:45:40;;;;;;;63.47;31.65;;;;;;;;;;5009969;28;20198;-71
2021/08/20 06:48:05;;;;;;;51.47;31.20;;;;;;;;;;5000793;28;20269;-72
2021/08/20 06:50:31;;;;;;;59.75;32.75;;;;;;;;;;5005475;28;20652;-71
2021/08/20 06:52:56;;;;;;;51.72;30.50;;;;;;;;;;4998972;28;20722;-72
2021/08/20 06:55:22;;;;;;;48.92;29.45;;;;;;;;;;5003690;28;20614;-72
2021/08/20 06:57:47;;;;;;;49.58;29.73;;;;;;;;;;4993910;28;20250;-71
2021/08/20 07:00:13;;;;;;;60.22;32.00;;;;;;;;;;5005822;28;20183;-71
2021/08/20 07:02:45;;;;;;;52.95;31.50;;;;;;;;;;4995976;28;20670;-71
2021/08/20 07:05:12;;;;;;;54.40;30.80;;;;;;;;;;5001051;28;20211;-71
2021/08/20 07:07:37;;;;;;;52.28;29.23;;;;;;;;;;4997712;28;21136;-71
2021/08/20 07:10:09;;;;;;;47.70;29.00;;;;;;;;;;5001859;28;20175;-71
2021/08/20 07:12:34;;;;;;;52.00;30.58;;;;;;;;;;5001988;28;20701;-72
2021/08/20 07:15:00;;;;;;;49.58;29.15;;;;;;;;;;4997585;28;20193;-76
2021/08/20 07:17:25;;;;;;;51.47;30.88;;;;;;;;;;5006135;28;20221;-72
2021/08/20 07:19:50;;;;;;;51.25;29.88;;;;;;;;;;4992189;28;20194;-73
2021/08/20 07:22:16;;;;;;;47.33;28.95;;;;;;;;;;5002754;28;20500;-73
2021/08/20 07:24:41;;;;;;;46.05;28.05;;;;;;;;;;4996383;28;20191;-74
2021/08/20 07:27:06;;;;;;;44.80;27.95;;;;;;;;;;5002848;28;20206;-76
2021/08/20 07:29:32;;;;;;;47.47;28.88;;;;;;;;;;4994227;28;20517;-75
2021/08/20 07:31:57;;;;;;;46.58;28.85;;;;;;;;;;5008784;28;20234;-76
2021/08/20 07:34:22;;;;;;;42.22;27.83;;;;;;;;;;4998745;28;20199;-74
2021/08/20 07:36:48;;;;;;;49.63;30.02;;;;;;;;;;5008044;28;20206;-75
2021/08/20 07:39:13;;;;;;;51.15;30.02;;;;;;;;;;4995028;28;20357;-75
2021/08/20 07:41:38;;;;;;;51.40;31.02;;;;;;;;;;5009900;28;20847;-75
2021/08/20 07:44:04;;;;;;;55.90;32.65;;;;;;;;;;5007197;28;20194;-76
2021/08/20 07:46:29;;;;;;;57.88;31.98;;;;;;;;;;4999519;28;20206;-75
2021/08/20 07:48:55;;;;;;;55.60;32.17;;;;;;;;;;5005547;28;20183;-76
2021/08/20 07:51:20;;;;;;;61.38;34.63;;;;;;;;;;4999339;28;20197;-75
2021/08/20 07:53:45;;;;;;;57.55;33.92;;;;;;;;;;5008511;28;20519;-75
2021/08/20 07:56:11;;;;;;;63.83;35.25;;;;;;;;;;4999388;28;20632;-75
2021/08/20 07:58:36;;;;;;;63.55;35.53;;;;;;;;;;5008518;28;20285;-76
2021/08/20 08:01:02;;;;;;;62.58;36.38;;;;;;;;;;5001684;28;20306;-74
2021/08/20 08:03:29;;;;;;;60.25;36.15;;;;;;;;;;5006088;28;20222;-73
2021/08/20 08:05:54;;;;;;;60.30;34.28;;;;;;;;;;5001684;28;20599;-74
2021/08/20 08:08:20;;;;;;;63.30;36.35;;;;;;;;;;5007654;28;20175;-74
2021/08/20 08:10:45;;;;;;;57.90;35.03;;;;;;;;;;4998331;28;20183;-75
2021/08/20 08:13:10;;;;;;;58.88;35.90;;;;;;;;;;5008903;28;20194;-75
2021/08/20 08:15:36;;;;;;;55.30;35.92;;;;;;;;;;5008424;28;20217;-73
2021/08/20 08:18:01;;;;;;;61.33;35.65;;;;;;;;;;4999547;28;20233;-73
2021/08/20 08:20:26;;;;;;;59.78;37.13;;;;;;;;;;5007179;28;20257;-73
2021/08/20 08:22:52;;;;;;;55.65;35.67;;;;;;;;;;4996653;28;20241;-74
2021/08/20 08:25:19;;;;;;;55.53;35.50;;;;;;;;;;5003494;28;20195;-73
2021/08/20 08:27:52;;;;;;;53.10;34.15;;;;;;;;;;4997368;28;20179;-74
2021/08/20 08:30:18;;;;;;;53.83;34.33;;;;;;;;;;5004310;28;20202;-73
2021/08/20 08:32:43;;;;;;;50.97;33.58;;;;;;;;;;4998158;28;20190;-75
2021/08/20 08:35:09;;;;;;;49.13;33.25;;;;;;;;;;5000673;28;20612;-73
2021/08/20 08:37:34;;;;;;;47.08;31.33;;;;;;;;;;4997236;28;20630;-73
2021/08/20 08:39:59;;;;;;;45.30;30.58;;;;;;;;;;5004124;28;20274;-73
2021/08/20 08:42:25;;;;;;;47.33;31.38;;;;;;;;;;4997694;28;20188;-73
2021/08/20 08:44:50;;;;;;;43.83;31.05;;;;;;;;;;5004133;28;20230;-73
2021/08/20 08:47:16;;;;;;;46.58;30.58;;;;;;;;;;5006471;28;20174;-73
2021/08/20 08:49:43;;;;;;;43.65;30.20;;;;;;;;;;4996849;28;20179;-73
2021/08/20 08:52:09;;;;;;;42.80;28.98;;;;;;;;;;5003932;28;20194;-72
2021/08/20 08:54:34;;;;;;;49.65;30.83;;;;;;;;;;4993149;28;20186;-72
2021/08/20 08:56:59;;;;;;;47.78;31.73;;;;;;;;;;5005914;28;20233;-73
2021/08/20 08:59:25;;;;;;;42.97;30.90;;;;;;;;;;4996288;28;20210;-73
2021/08/20 09:01:50;;;;;;;47.97;32.33;;;;;;;;;;5004133;28;20178;-73
2021/08/20 09:04:22;;;;;;;48.88;32.00;;;;;;;;;;4993761;28;20193;-71
2021/08/20 09:06:57;;;;;;;45.10;32.10;;;;;;;;;;5003637;28;20221;-71
2021/08/20 09:09:24;;;;;;;48.40;32.65;;;;;;;;;;4996715;28;20213;-72
2021/08/20 09:11:58;;;;;;;46.78;31.13;;;;;;;;;;5006687;28;20185;-72
2021/08/20 09:14:35;;;;;;;48.40;33.10;;;;;;;;;;4995490;28;20256;-71
2021/08/20 09:17:01;;;;;;;48.28;32.88;;;;;;;;;;5006792;28;20198;-72
2021/08/20 09:19:28;;;;;;;50.90;34.08;;;;;;;;;;4995429;28;20538;-72
2021/08/20 09:21:56;;;;;;;51.08;33.38;;;;;;;;;;5006030;28;20230;-71
2021/08/20 09:24:35;;;;;;;46.35;32.63;;;;;;;;;;4994723;28;20191;-72
2021/08/20 09:27:21;;;;;;;50.03;34.47;;;;;;;;;;5003521;28;20186;-71
2021/08/20 09:29:53;;;;;;;45.63;32.50;;;;;;;;;;4999243;28;24811;-71
2021/08/20 09:32:18;;;;;;;44.22;32.53;;;;;;;;;;5005891;28;20194;-71
2021/08/20 09:34:55;;;;;;;51.42;34.13;;;;;;;;;;5005923;28;20190;-71
2021/08/20 09:37:21;;;;;;;46.92;33.78;;;;;;;;;;5004426;28;20282;-72
2021/08/20 09:39:48;;;;;;;47.90;32.47;;;;;;;;;;5005048;28;20236;-71
2021/08/20 09:42:16;;;;;;;42.72;30.92;;;;;;;;;;4997179;28;20213;-71
2021/08/20 09:44:41;;;;;;;42.38;30.88;;;;;;;;;;5004316;28;20183;-72
2021/08/20 09:47:07;;;;;;;44.78;31.23;;;;;;;;;;4994124;28;20283;-72
2021/08/20 09:49:55;;;;;;;39.42;29.60;;;;;;;;;;5005750;28;20187;-73
2021/08/20 09:52:28;;;;;;;38.15;28.80;;;;;;;;;;4996077;28;20639;-72
2021/08/20 09:54:53;;;;;;;41.00;28.60;;;;;;;;;;5010744;28;20174;-71
2021/08/20 09:57:27;;;;;;;37.35;27.73;;;;;;;;;;4997605;28;20232;-71
2021/08/20 09:59:57;;;;;;;37.97;27.45;;;;;;;;;;5003588;28;20677;-71
2021/08/20 10:02:27;;;;;;;30.35;24.67;;;;;;;;;;4995551;28;20269;-73
2021/08/20 10:04:54;;;;;;;29.42;22.75;;;;;;;;;;5008953;28;20178;-72
2021/08/20 10:07:21;;;;;;;29.77;23.80;;;;;;;;;;4996088;28;20193;-72
2021/08/20 10:09:47;;;;;;;28.17;22.42;;;;;;;;;;5005920;28;20190;-72
2021/08/20 10:12:18;;;;;;;28.50;22.70;;;;;;;;;;4996519;28;20596;-71
2021/08/20 10:14:45;;;;;;;29.15;22.13;;;;;;;;;;5006216;28;20546;-72
2021/08/20 10:17:11;;;;;;;25.33;20.13;;;;;;;;;;4999039;28;20209;-72
2021/08/20 10:19:37;;;;;;;23.77;18.58;;;;;;;;;;5006177;28;20200;-71
2021/08/20 10:22:05;;;;;;;22.25;17.38;;;;;;;;;;5004571;28;20199;-71
2021/08/20 10:24:31;;;;;;;23.95;17.85;;;;;;;;;;5001348;28;20191;-70
2021/08/20 10:26:57;;;;;;;21.55;18.15;;;;;;;;;;5003103;28;20664;-69
2021/08/20 10:29:29;;;;;;;19.60;15.93;;;;;;;;;;4996776;28;20191;-72
2021/08/20 10:32:01;;;;;;;16.45;14.60;;;;;;;;;;5002092;28;20191;-70
2021/08/20 10:34:29;;;;;;;15.90;13.90;;;;;;;;;;4999689;28;20202;-70
2021/08/20 10:37:07;;;;;;;17.05;14.85;;;;;;;;;;5007502;28;20211;-70
2021/08/20 10:39:34;;;;;;;18.17;14.98;;;;;;;;;;4999598;28;20549;-70
2021/08/20 10:42:20;;;;;;;18.67;15.52;;;;;;;;;;5009431;28;20597;-72
2021/08/20 10:44:48;;;;;;;21.02;17.30;;;;;;;;;;5001245;28;20273;-70
2021/08/20 10:47:20;;;;;;;22.08;17.70;;;;;;;;;;5006355;28;20229;-70
2021/08/20 10:49:47;;;;;;;21.50;17.58;;;;;;;;;;4999925;28;20194;-71
2021/08/20 10:52:33;;;;;;;19.98;17.85;;;;;;;;;;5009543;28;20178;-71
2021/08/20 10:54:58;;;;;;;22.98;17.15;;;;;;;;;;5000779;28;20634;-72
2021/08/20 10:57:39;;;;;;;19.17;16.63;;;;;;;;;;5007277;28;20208;-71
2021/08/20 11:00:08;;;;;;;21.27;16.67;;;;;;;;;;4996525;28;20297;-73
2021/08/20 11:02:47;;;;;;;19.75;16.17;;;;;;;;;;5007857;28;20237;-71
2021/08/20 11:05:16;;;;;;;20.60;15.23;;;;;;;;;;4997983;28;20194;-72
2021/08/20 11:07:42;;;;;;;17.05;15.10;;;;;;;;;;5003729;28;20661;-70
2021/08/20 11:10:07;;;;;;;17.13;15.25;;;;;;;;;;4999069;28;20179;-71
2021/08/20 11:12:59;;;;;;;17.17;14.38;;;;;;;;;;5008202;28;20183;-71
2021/08/20 11:17:55;;;;;;;17.63;14.48;;;;;;;;;;5009512;28;20256;-71
2021/08/20 11:20:33;;;;;;;22.38;14.93;;;;;;;;;;4997565;28;20194;-71
2021/08/20 11:23:08;;;;;;;20.73;15.18;;;;;;;;;;5008016;28;20182;-71
2021/08/20 11:25:42;;;;;;;16.30;14.15;;;;;;;;;;4998334;28;20580;-72
2021/08/20 11:28:18;;;;;;;16.88;13.50;;;;;;;;;;5003881;28;20183;-72
2021/08/20 11:30:52;;;;;;;16.35;13.73;;;;;;;;;;4999630;28;20182;-71
2021/08/20 11:33:20;;;;;;;17.75;14.02;;;;;;;;;;5007907;28;20182;-71
2021/08/20 11:35:48;;;;;;;17.98;14.10;;;;;;;;;;5007316;28;20654;-71
2021/08/20 11:38:28;;;;;;;15.77;14.05;;;;;;;;;;5000598;28;20206;-71
2021/08/20 11:40:56;;;;;;;16.75;13.35;;;;;;;;;;5007623;28;20178;-71
2021/08/20 11:43:22;;;;;;;17.23;12.00;;;;;;;;;;4996627;28;20202;-71
2021/08/20 11:45:57;;;;;;;14.73;13.10;;;;;;;;;;5007573;28;20218;-71
2021/08/20 11:48:23;;;;;;;13.27;11.95;;;;;;;;;;4996673;28;20266;-71
2021/08/20 11:50:48;;;;;;;12.23;11.02;;;;;;;;;;5007844;28;20278;-71
2021/08/20 11:53:22;;;;;;;12.93;10.95;;;;;;;;;;4998330;28;20197;-71
2021/08/20 11:55:48;;;;;;;12.18;10.48;;;;;;;;;;5004112;28;20226;-72
2021/08/20 11:58:27;;;;;;;16.13;11.15;;;;;;;;;;4994892;28;20213;-71
2021/08/20 12:00:52;;;;;;;14.18;11.60;;;;;;;;;;5008439;28;20538;-71
2021/08/20 12:03:18;;;;;;;15.57;11.90;;;;;;;;;;4996226;28;20281;-71
2021/08/20 12:05:43;;;;;;;13.23;11.77;;;;;;;;;;5010510;28;20179;-71
2021/08/20 12:08:17;;;;;;;13.18;11.85;;;;;;;;;;4997389;28;20193;-72
2021/08/20 12:10:44;;;;;;;17.13;12.25;;;;;;;;;;5007606;28;20182;-70
2021/08/20 12:13:12;;;;;;;13.70;11.88;;;;;;;;;;4996051;28;20186;-72
2021/08/20 12:15:37;;;;;;;13.10;11.70;;;;;;;;;;5008223;28;20187;-72
2021/08/20 12:18:20;;;;;;;13.70;12.30;;;;;;;;;;5000523;28;20737;-72
2021/08/20 12:20:45;;;;;;;12.75;11.45;;;;;;;;;;5008748;28;20191;-72
2021/08/20 12:23:11;;;;;;;13.13;11.60;;;;;;;;;;5002257;28;20191;-70
2021/08/20 12:25:39;;;;;;;13.88;12.05;;;;;;;;;;5001322;28;20183;-72
2021/08/20 12:28:10;;;;;;;13.50;11.73;;;;;;;;;;5001829;28;20543;-71
2021/08/20 12:30:37;;;;;;;12.20;10.90;;;;;;;;;;4996990;28;20671;-70
2021/08/20 12:33:02;;;;;;;16.92;12.05;;;;;;;;;;4999501;28;20614;-71
2021/08/20 12:35:28;;;;;;;14.63;12.55;;;;;;;;;;4994175;28;20182;-70
2021/08/20 12:38:09;;;;;;;13.10;11.32;;;;;;;;;;5002548;28;20299;-72
2021/08/20 12:40:40;;;;;;;16.48;11.77;;;;;;;;;;4991448;28;20194;-72
2021/08/20 12:43:26;;;;;;;15.68;11.52;;;;;;;;;;5005174;28;20252;-71
2021/08/20 12:46:14;;;;;;;15.75;11.98;;;;;;;;;;4996190;28;20205;-73
2021/08/20 12:48:55;;;;;;;14.93;11.80;;;;;;;;;;5006704;28;20167;-71
2021/08/20 12:51:21;;;;;;;12.57;10.40;;;;;;;;;;4303702;28;10000741;-71
2021/08/20 12:54:00;;;;;;;12.10;10.68;;;;;;;;;;5000633;28;20565;-74
2021/08/20 12:56:32;;;;;;;13.15;11.02;;;;;;;;;;4991462;28;20766;-72
2021/08/20 12:58:59;;;;;;;14.45;10.73;;;;;;;;;;5000635;28;20226;-72
2021/08/20 13:01:25;;;;;;;11.48;9.68;;;;;;;;;;4990825;28;20225;-72
2021/08/20 13:03:50;;;;;;;10.50;8.85;;;;;;;;;;5003355;28;20218;-72
2021/08/20 13:06:15;;;;;;;12.27;10.18;;;;;;;;;;4989629;28;20197;-73
2021/08/20 13:08:41;;;;;;;12.15;9.98;;;;;;;;;;4999326;28;20999;-73
2021/08/20 13:11:06;;;;;;;10.13;8.50;;;;;;;;;;4989368;28;20194;-74
2021/08/20 13:13:32;;;;;;;12.15;10.50;;;;;;;;;;4999689;28;20537;-73
2021/08/20 13:15:57;;;;;;;10.55;9.45;;;;;;;;;;5001604;28;20190;-72
2021/08/20 13:18:23;;;;;;;10.00;8.70;;;;;;;;;;4993246;28;20618;-72
2021/08/20 13:20:51;;;;;;;9.70;8.75;;;;;;;;;;4999591;28;20686;-72
2021/08/20 13:23:17;;;;;;;11.77;9.82;;;;;;;;;;4992197;28;20289;-72
2021/08/20 13:25:42;;;;;;;9.25;8.32;;;;;;;;;;4999625;28;20678;-72
2021/08/20 13:28:09;;;;;;;11.57;10.20;;;;;;;;;;4988856;28;20257;-72
2021/08/20 13:30:35;;;;;;;8.77;7.95;;;;;;;;;;5001365;28;20208;-72
2021/08/20 13:33:01;;;;;;;10.98;8.45;;;;;;;;;;4991948;28;20195;-72
2021/08/20 13:35:26;;;;;;;9.23;8.23;;;;;;;;;;4999175;28;20547;-72
2021/08/20 13:37:52;;;;;;;9.48;8.48;;;;;;;;;;4990320;28;20202;-72
2021/08/20 13:40:17;;;;;;;8.88;7.97;;;;;;;;;;5002945;28;20659;-72
2021/08/20 13:42:43;;;;;;;9.18;8.38;;;;;;;;;;4989953;28;20190;-72
2021/08/20 13:45:10;;;;;;;9.00;8.10;;;;;;;;;;5000398;28;20248;-72
2021/08/20 13:47:35;;;;;;;9.98;8.13;;;;;;;;;;5005540;28;20663;-73
2021/08/20 13:50:02;;;;;;;8.20;7.35;;;;;;;;;;4994935;28;20257;-72
2021/08/20 13:52:28;;;;;;;8.18;7.30;;;;;;;;;;5000733;28;20193;-72
2021/08/20 13:54:54;;;;;;;7.68;6.88;;;;;;;;;;4993092;28;20548;-72
2021/08/20 13:57:19;;;;;;;8.40;7.60;;;;;;;;;;5000733;28;20211;-73
2021/08/20 13:59:44;;;;;;;8.98;7.95;;;;;;;;;;4992510;28;20207;-72
2021/08/20 14:02:10;;;;;;;11.02;8.15;;;;;;;;;;5002817;28;20233;-72
2021/08/20 14:04:35;;;;;;;11.77;7.65;;;;;;;;;;4995687;28;20213;-72
2021/08/20 14:07:00;;;;;;;7.82;7.07;;;;;;;;;;5005763;28;20630;-72
2021/08/20 14:09:26;;;;;;;9.73;8.57;;;;;;;;;;4997553;28;20822;-72
2021/08/20 14:11:51;;;;;;;8.88;7.38;;;;;;;;;;5006870;28;20642;-72
2021/08/20 14:14:16;;;;;;;9.27;8.23;;;;;;;;;;5002985;28;20182;-72
2021/08/20 14:16:42;;;;;;;10.90;8.38;;;;;;;;;;5006751;28;20179;-72
2021/08/20 14:19:07;;;;;;;11.63;8.13;;;;;;;;;;5007345;28;20671;-71
2021/08/20 14:21:34;;;;;;;11.00;7.75;;;;;;;;;;5002172;28;20329;-71